createdAt,value
2023-04-15T00:01:06.002Z,5.71
2023-04-15T00:03:34.714Z,5.71
2023-04-15T00:06:02.514Z,5.69
2023-04-15T00:08:30.195Z,5.66
2023-04-15T00:10:57.681Z,5.62
2023-04-15T00:13:24.754Z,5.59
2023-04-15T00:15:52.252Z,5.53
2023-04-15T00:18:19.221Z,5.48
2023-04-15T00:20:46.070Z,5.43
2023-04-15T00:23:13.033Z,5.37
2023-04-15T00:25:40.459Z,5.35
2023-04-15T00:28:07.382Z,5.35
2023-04-15T00:30:34.377Z,5.37
2023-04-15T00:33:04.986Z,5.37
2023-04-15T00:35:35.988Z,5.36
2023-04-15T00:38:06.060Z,5.36
2023-04-15T00:40:33.487Z,5.34
2023-04-15T00:43:00.788Z,5.36
2023-04-15T00:45:28.298Z,5.34
2023-04-15T00:47:56.084Z,5.35
2023-04-15T00:50:23.167Z,5.36
2023-04-15T00:52:50.003Z,5.34
2023-04-15T00:55:17.016Z,5.33
2023-04-15T00:57:44.811Z,5.32
2023-04-15T01:00:12.248Z,5.31
2023-04-15T01:02:39.499Z,5.30
2023-04-15T01:05:07.735Z,5.28
2023-04-15T01:07:34.645Z,5.30
2023-04-15T01:10:04.319Z,5.31
2023-04-15T01:12:33.959Z,5.32
2023-04-15T01:15:01.810Z,5.31
2023-04-15T01:17:28.848Z,5.27
2023-04-15T01:19:58.024Z,5.28
2023-04-15T01:22:26.878Z,5.33
2023-04-15T01:25:49.446Z,5.35
2023-04-15T01:28:16.941Z,5.36
2023-04-15T01:30:44.695Z,5.34
2023-04-15T01:33:12.311Z,5.35
2023-04-15T01:35:39.182Z,5.33
2023-04-15T01:38:08.883Z,5.30
2023-04-15T01:40:35.968Z,5.30
2023-04-15T01:43:03.941Z,5.33
2023-04-15T01:45:31.167Z,5.36
2023-04-15T01:47:58.136Z,5.39
2023-04-15T01:50:26.214Z,5.41
2023-04-15T01:52:55.560Z,5.42
2023-04-15T01:55:22.436Z,5.42
2023-04-15T01:57:49.337Z,5.43
2023-04-15T02:00:17.736Z,5.46
2023-04-15T02:02:44.944Z,5.45
2023-04-15T02:05:12.043Z,5.47
2023-04-15T02:07:39.009Z,5.48
2023-04-15T02:10:06.254Z,5.41
2023-04-15T02:12:35.865Z,5.41
2023-04-15T02:15:02.830Z,5.45
2023-04-15T02:17:29.798Z,5.46
2023-04-15T02:19:56.984Z,5.47
2023-04-15T02:22:24.854Z,5.49
2023-04-15T02:24:51.779Z,5.48
2023-04-15T02:27:18.977Z,5.48
2023-04-15T02:29:46.379Z,5.46
2023-04-15T02:32:14.105Z,5.46
2023-04-15T02:34:42.763Z,5.46
2023-04-15T02:37:11.895Z,5.39
2023-04-15T02:39:39.062Z,5.43
2023-04-15T02:42:06.179Z,5.45
2023-04-15T02:44:35.303Z,5.47
2023-04-15T02:47:05.177Z,5.52
2023-04-15T02:49:32.065Z,5.55
2023-04-15T02:52:00.205Z,5.55
2023-04-15T02:54:30.047Z,5.57
2023-04-15T02:56:57.470Z,5.56
2023-04-15T02:59:24.841Z,5.55
2023-04-15T03:01:51.832Z,5.51
2023-04-15T03:04:18.901Z,5.45
2023-04-15T03:06:46.330Z,5.40
2023-04-15T03:09:13.242Z,5.36
2023-04-15T03:11:42.143Z,5.31
2023-04-15T03:14:10.067Z,5.24
2023-04-15T03:16:41.339Z,5.22
2023-04-15T03:19:08.320Z,5.19
2023-04-15T03:21:35.987Z,5.19
2023-04-15T03:24:03.006Z,5.18
2023-04-15T03:26:31.148Z,5.20
2023-04-15T03:29:01.849Z,5.25
2023-04-15T03:31:29.276Z,5.28
2023-04-15T03:33:56.179Z,5.32
2023-04-15T03:36:23.838Z,5.34
2023-04-15T03:38:50.767Z,5.35
2023-04-15T03:41:17.638Z,5.36
2023-04-15T03:43:44.621Z,5.36
2023-04-15T03:46:11.566Z,5.37
2023-04-15T03:48:38.473Z,5.38
2023-04-15T03:51:05.405Z,5.41
2023-04-15T03:53:32.240Z,5.45
2023-04-15T03:55:59.165Z,5.49
2023-04-15T03:58:26.180Z,5.55
2023-04-15T04:00:53.092Z,5.61
2023-04-15T04:03:20.147Z,5.60
2023-04-15T04:05:47.350Z,5.56
2023-04-15T04:08:15.195Z,5.60
2023-04-15T04:10:42.723Z,5.59
2023-04-15T04:13:09.585Z,5.54
2023-04-15T04:15:36.744Z,5.51
2023-04-15T04:18:03.836Z,5.49
2023-04-15T04:20:32.197Z,5.48
2023-04-15T04:22:59.203Z,5.49
2023-04-15T04:25:26.150Z,5.51
2023-04-15T04:27:53.113Z,5.54
2023-04-15T04:30:20.214Z,5.53
2023-04-15T04:32:47.133Z,5.53
2023-04-15T04:35:14.080Z,5.56
2023-04-15T04:37:40.947Z,5.63
2023-04-15T04:40:08.611Z,5.77
2023-04-15T04:42:36.843Z,6.02
2023-04-15T04:45:05.946Z,6.04
2023-04-15T04:47:32.828Z,6.02
2023-04-15T04:49:59.746Z,5.86
2023-04-15T04:52:26.582Z,5.93
2023-04-15T04:54:53.458Z,5.96
2023-04-15T04:57:20.301Z,6.12
2023-04-15T04:59:47.211Z,6.34
2023-04-15T05:02:14.161Z,7.92
2023-04-15T05:04:41.895Z,9.05
2023-04-15T05:07:08.843Z,9.32
2023-04-15T05:09:36.929Z,9.37
2023-04-15T05:12:06.841Z,9.60
2023-04-15T05:14:33.879Z,10.84
2023-04-15T05:17:00.750Z,12.64
2023-04-15T05:19:27.776Z,14.29
2023-04-15T05:21:55.399Z,15.41
2023-04-15T05:24:22.697Z,16.43
2023-04-15T05:26:49.653Z,16.95
2023-04-15T05:29:16.840Z,16.44
2023-04-15T05:31:44.184Z,16.01
2023-04-15T05:34:12.371Z,15.75
2023-04-15T05:36:39.313Z,15.13
2023-04-15T05:39:06.214Z,14.40
2023-04-15T05:41:33.272Z,14.72
2023-04-15T05:44:00.210Z,15.97
2023-04-15T05:46:27.625Z,17.69
2023-04-15T05:48:56.345Z,19.35
2023-04-15T05:51:23.510Z,20.61
2023-04-15T05:53:50.578Z,21.46
2023-04-15T05:56:17.564Z,22.18
2023-04-15T05:58:44.512Z,23.05
2023-04-15T06:01:11.813Z,23.40
2023-04-15T06:03:39.844Z,24.06
2023-04-15T06:06:07.733Z,24.36
2023-04-15T06:08:34.659Z,24.76
2023-04-15T06:11:01.712Z,25.16
2023-04-15T06:13:29.455Z,25.37
2023-04-15T06:15:56.307Z,25.21
2023-04-15T06:18:23.237Z,23.96
2023-04-15T06:20:50.152Z,23.12
2023-04-15T06:23:17.008Z,22.68
2023-04-15T06:25:43.870Z,22.51
2023-04-15T06:28:10.778Z,22.81
2023-04-15T06:30:38.569Z,23.41
2023-04-15T06:33:06.407Z,23.60
2023-04-15T06:35:33.248Z,24.28
2023-04-15T06:38:00.055Z,24.42
2023-04-15T06:40:27.189Z,24.57
2023-04-15T06:42:54.124Z,25.32
2023-04-15T06:45:21.044Z,25.82
2023-04-15T06:47:47.913Z,26.22
2023-04-15T06:50:14.903Z,26.32
2023-04-15T06:52:41.924Z,26.26
2023-04-15T06:55:08.988Z,25.42
2023-04-15T06:57:36.046Z,25.72
2023-04-15T07:00:05.829Z,26.17
2023-04-15T07:02:32.974Z,27.05
2023-04-15T07:04:59.913Z,27.72
2023-04-15T07:07:26.822Z,28.04
2023-04-15T07:09:53.904Z,27.66
2023-04-15T07:12:21.517Z,27.76
2023-04-15T07:14:49.492Z,27.87
2023-04-15T07:17:16.695Z,28.57
2023-04-15T07:19:43.572Z,28.62
2023-04-15T07:22:10.671Z,28.32
2023-04-15T07:24:37.465Z,27.78
2023-04-15T07:27:04.362Z,27.09
2023-04-15T07:29:31.563Z,26.15
2023-04-15T07:31:58.482Z,25.54
2023-04-15T07:34:25.872Z,25.12
2023-04-15T07:36:52.924Z,24.57
2023-04-15T07:39:19.959Z,24.11
2023-04-15T07:41:46.857Z,23.72
2023-04-15T07:44:13.862Z,23.42
2023-04-15T07:46:41.260Z,22.82
2023-04-15T07:49:08.224Z,22.44
2023-04-15T07:51:35.156Z,22.01
2023-04-15T07:54:01.972Z,21.67
2023-04-15T07:56:28.870Z,21.37
2023-04-15T07:58:55.709Z,21.00
2023-04-15T08:01:22.901Z,20.86
2023-04-15T08:03:49.930Z,20.47
2023-04-15T08:06:17.239Z,20.09
2023-04-15T08:08:44.279Z,19.60
2023-04-15T08:11:11.190Z,19.53
2023-04-15T08:13:38.109Z,19.03
2023-04-15T08:16:21.565Z,18.74
2023-04-15T08:18:50.423Z,18.50
2023-04-15T08:21:19.515Z,18.30
2023-04-15T08:23:49.475Z,18.30
2023-04-15T08:26:17.479Z,18.44
2023-04-15T08:28:45.699Z,18.22
2023-04-15T08:31:14.347Z,18.33
2023-04-15T08:33:41.196Z,18.38
2023-04-15T08:36:08.558Z,18.44
2023-04-15T08:38:36.448Z,18.71
2023-04-15T08:41:11.962Z,18.78
2023-04-15T08:43:49.922Z,18.83
2023-04-15T08:46:17.665Z,18.88
2023-04-15T08:48:46.175Z,18.96
2023-04-15T08:51:16.186Z,19.05
2023-04-15T08:53:44.855Z,19.00
2023-04-15T08:56:14.360Z,19.16
2023-04-15T08:58:45.146Z,19.33
2023-04-15T09:01:15.363Z,19.45
2023-04-15T09:03:42.715Z,19.52
2023-04-15T09:06:09.889Z,19.41
2023-04-15T09:08:36.795Z,19.30
2023-04-15T09:11:04.266Z,19.36
2023-04-15T09:13:31.803Z,19.24
2023-04-15T09:15:58.832Z,19.18
2023-04-15T09:18:34.310Z,19.08
2023-04-15T09:21:11.219Z,19.27
2023-04-15T09:23:56.241Z,19.53
2023-04-15T09:26:37.211Z,19.57
2023-04-15T09:29:09.292Z,19.73
2023-04-15T09:31:38.785Z,19.68
2023-04-15T09:34:06.276Z,19.98
2023-04-15T09:37:02.542Z,20.12
2023-04-15T09:39:46.365Z,20.55
2023-04-15T09:42:13.304Z,20.64
2023-04-15T09:44:40.536Z,20.80
2023-04-15T09:47:07.541Z,20.84
2023-04-15T09:49:34.529Z,20.87
2023-04-15T09:52:06.195Z,21.01
2023-04-15T09:54:38.189Z,21.09
2023-04-15T09:57:07.338Z,20.94
2023-04-15T09:59:34.511Z,21.04
2023-04-15T10:02:09.990Z,21.14
2023-04-15T10:04:41.519Z,20.86
2023-04-15T10:07:10.004Z,20.59
2023-04-15T10:09:38.329Z,20.35
2023-04-15T10:12:05.874Z,20.32
2023-04-15T10:14:35.877Z,20.50
2023-04-15T10:17:05.564Z,20.79
2023-04-15T10:19:36.546Z,20.90
2023-04-15T10:22:04.289Z,21.05
2023-04-15T10:24:33.176Z,21.29
2023-04-15T10:27:00.655Z,21.43
2023-04-15T10:29:27.833Z,21.68
2023-04-15T10:31:56.524Z,21.99
2023-04-15T10:34:24.904Z,22.10
2023-04-15T10:36:52.112Z,22.17
2023-04-15T10:39:34.870Z,22.17
2023-04-15T10:42:13.044Z,22.14
2023-04-15T10:44:42.240Z,22.14
2023-04-15T10:47:14.258Z,21.90
2023-04-15T10:50:01.718Z,21.36
2023-04-15T10:52:29.746Z,21.09
2023-04-15T10:55:11.368Z,20.86
2023-04-15T10:57:40.095Z,20.56
2023-04-15T11:00:17.511Z,20.58
2023-04-15T11:02:47.573Z,20.73
2023-04-15T11:05:19.164Z,21.01
2023-04-15T11:07:58.642Z,21.45
2023-04-15T11:10:25.936Z,21.98
2023-04-15T11:12:56.840Z,22.11
2023-04-15T11:15:31.168Z,22.38
2023-04-15T11:18:10.159Z,22.47
2023-04-15T11:20:38.815Z,22.60
2023-04-15T11:23:13.967Z,22.67
2023-04-15T11:25:43.300Z,22.49
2023-04-15T11:28:12.047Z,22.31
2023-04-15T11:30:40.215Z,22.16
2023-04-15T11:33:09.349Z,21.92
2023-04-15T11:35:36.933Z,21.75
2023-04-15T11:38:10.997Z,21.80
2023-04-15T11:40:38.672Z,21.84
2023-04-15T11:43:21.546Z,21.84
2023-04-15T11:46:00.221Z,21.84
2023-04-15T11:48:32.537Z,21.91
2023-04-15T11:51:00.511Z,21.77
2023-04-15T11:53:48.048Z,21.62
2023-04-15T11:56:26.563Z,21.72
2023-04-15T11:58:58.792Z,21.82
2023-04-15T12:01:36.686Z,21.89
2023-04-15T12:04:12.178Z,21.74
2023-04-15T12:06:39.417Z,21.82
2023-04-15T12:09:13.218Z,21.87
2023-04-15T12:11:48.469Z,21.87
2023-04-15T12:14:29.550Z,21.97
2023-04-15T12:17:02.872Z,22.02
2023-04-15T12:19:43.385Z,22.25
2023-04-15T12:22:13.135Z,22.41
2023-04-15T12:24:40.456Z,22.55
2023-04-15T12:27:10.155Z,22.65
2023-04-15T12:29:39.206Z,22.77
2023-04-15T12:32:08.702Z,23.06
2023-04-15T12:34:37.010Z,23.18
2023-04-15T12:37:05.776Z,23.24
2023-04-15T12:39:36.442Z,23.53
2023-04-15T12:42:06.650Z,23.65
2023-04-15T12:44:34.320Z,23.80
2023-04-15T12:47:01.379Z,23.89
2023-04-15T12:49:28.556Z,23.80
2023-04-15T12:51:57.601Z,23.83
2023-04-15T12:54:24.499Z,23.72
2023-04-15T12:56:51.893Z,23.36
2023-04-15T12:59:18.878Z,23.37
2023-04-15T13:01:47.568Z,23.40
2023-04-15T13:04:15.588Z,23.65
2023-04-15T13:06:43.126Z,23.55
2023-04-15T13:09:10.152Z,23.73
2023-04-15T13:11:37.295Z,23.81
2023-04-15T13:14:06.473Z,23.57
2023-04-15T13:16:34.690Z,23.42
2023-04-15T13:19:04.184Z,23.18
2023-04-15T13:21:35.683Z,22.99
2023-04-15T13:24:04.534Z,22.58
2023-04-15T13:26:32.090Z,22.09
2023-04-15T13:28:59.832Z,21.76
2023-04-15T13:31:27.290Z,21.32
2023-04-15T13:33:54.449Z,20.99
2023-04-15T13:36:21.506Z,20.62
2023-04-15T13:38:50.930Z,20.47
2023-04-15T13:41:18.661Z,20.49
2023-04-15T13:43:45.729Z,20.51
2023-04-15T13:46:14.664Z,20.59
2023-04-15T13:48:41.864Z,20.72
2023-04-15T13:51:08.781Z,20.72
2023-04-15T13:53:39.144Z,20.78
2023-04-15T13:56:08.716Z,20.88
2023-04-15T13:58:36.781Z,21.04
2023-04-15T14:01:05.857Z,21.09
2023-04-15T14:03:34.062Z,20.99
2023-04-15T14:06:01.344Z,20.74
2023-04-15T14:08:28.339Z,20.50
2023-04-15T14:10:55.397Z,20.56
2023-04-15T14:13:22.223Z,20.60
2023-04-15T14:15:49.115Z,20.68
2023-04-15T14:18:16.090Z,20.66
2023-04-15T14:20:42.904Z,20.78
2023-04-15T14:23:09.810Z,20.66
2023-04-15T14:25:39.199Z,20.60
2023-04-15T14:28:06.093Z,20.53
2023-04-15T14:30:33.266Z,20.51
2023-04-15T14:33:00.527Z,20.43
2023-04-15T14:35:28.150Z,20.36
2023-04-15T14:37:55.836Z,20.30
2023-04-15T14:40:22.984Z,20.18
2023-04-15T14:42:49.972Z,20.07
2023-04-15T14:45:17.817Z,20.03
2023-04-15T14:47:45.061Z,20.11
2023-04-15T14:50:12.303Z,20.20
2023-04-15T14:52:39.415Z,20.22
2023-04-15T14:55:10.694Z,20.29
2023-04-15T14:57:38.768Z,20.35
2023-04-15T15:00:07.472Z,20.44
2023-04-15T15:02:39.603Z,20.59
2023-04-15T15:05:08.565Z,20.72
2023-04-15T15:07:39.514Z,20.79
2023-04-15T15:10:07.256Z,20.70
2023-04-15T15:12:34.478Z,20.60
2023-04-15T15:15:04.963Z,20.53
2023-04-15T15:17:36.483Z,20.41
2023-04-15T15:20:04.170Z,20.33
2023-04-15T15:22:31.037Z,20.20
2023-04-15T15:24:59.909Z,20.13
2023-04-15T15:27:27.968Z,20.02
2023-04-15T15:29:56.701Z,19.90
2023-04-15T15:32:23.625Z,19.84
2023-04-15T15:34:50.636Z,19.70
2023-04-15T15:37:18.381Z,19.46
2023-04-15T15:39:45.456Z,19.50
2023-04-15T15:42:12.448Z,19.40
2023-04-15T15:44:39.313Z,19.24
2023-04-15T15:47:06.639Z,19.12
2023-04-15T15:49:33.802Z,19.07
2023-04-15T15:52:00.908Z,18.97
2023-04-15T15:54:27.956Z,18.97
2023-04-15T15:56:54.907Z,18.91
2023-04-15T15:59:21.768Z,18.79
2023-04-15T16:01:49.392Z,18.70
2023-04-15T16:04:16.598Z,18.59
2023-04-15T16:06:46.772Z,18.55
2023-04-15T16:09:14.100Z,18.53
2023-04-15T16:11:41.696Z,18.47
2023-04-15T16:14:08.612Z,18.43
2023-04-15T16:16:35.732Z,18.38
2023-04-15T16:19:02.879Z,18.32
2023-04-15T16:21:30.632Z,18.24
2023-04-15T16:23:57.804Z,18.22
2023-04-15T16:26:24.749Z,18.13
2023-04-15T16:28:51.613Z,18.03
2023-04-15T16:31:18.506Z,17.97
2023-04-15T16:33:45.338Z,17.87
2023-04-15T16:36:12.230Z,17.78
2023-04-15T16:38:39.061Z,17.68
2023-04-15T16:41:06.088Z,17.61
2023-04-15T16:43:33.112Z,17.53
2023-04-15T16:46:00.069Z,17.46
2023-04-15T16:48:27.167Z,17.38
2023-04-15T16:50:53.992Z,17.32
2023-04-15T16:53:21.012Z,17.24
2023-04-15T16:55:47.888Z,17.17
2023-04-15T16:58:15.604Z,17.07
2023-04-15T17:00:42.717Z,16.95
2023-04-15T17:03:09.777Z,16.89
2023-04-15T17:05:36.799Z,16.81
2023-04-15T17:08:04.972Z,16.73
2023-04-15T17:10:31.778Z,16.62
2023-04-15T17:12:59.313Z,16.51
2023-04-15T17:15:27.259Z,16.42
2023-04-15T17:17:54.506Z,16.32
2023-04-15T17:20:21.725Z,16.18
2023-04-15T17:22:49.225Z,16.06
2023-04-15T17:25:16.143Z,15.97
2023-04-15T17:27:43.152Z,15.87
2023-04-15T17:30:10.764Z,15.82
2023-04-15T17:32:39.494Z,15.76
2023-04-15T17:35:07.114Z,15.71
2023-04-15T17:37:34.603Z,15.67
2023-04-15T17:40:02.250Z,15.55
2023-04-15T17:42:29.329Z,15.44
2023-04-15T17:44:56.199Z,15.37
2023-04-15T17:47:23.163Z,15.26
2023-04-15T17:49:50.106Z,15.17
2023-04-15T17:52:16.999Z,15.10
2023-04-15T17:54:43.805Z,15.03
2023-04-15T17:57:10.796Z,14.99
2023-04-15T17:59:37.677Z,15.00
2023-04-15T18:02:04.715Z,14.99
2023-04-15T18:04:31.789Z,14.96
2023-04-15T18:06:58.916Z,14.86
2023-04-15T18:09:26.984Z,14.77
2023-04-15T18:11:53.936Z,14.67
2023-04-15T18:14:33.689Z,14.57
2023-04-15T18:17:02.737Z,14.47
2023-04-15T18:19:30.877Z,14.44
2023-04-15T18:22:00.436Z,14.39
2023-04-15T18:24:28.061Z,14.38
2023-04-15T18:26:55.153Z,14.30
2023-04-15T18:29:22.429Z,14.25
2023-04-15T18:31:49.409Z,14.24
2023-04-15T18:34:16.373Z,14.19
2023-04-15T18:36:43.558Z,14.15
2023-04-15T18:39:10.633Z,14.12
2023-04-15T18:41:37.588Z,14.10
2023-04-15T18:44:04.495Z,14.10
2023-04-15T18:46:31.421Z,14.10
2023-04-15T18:48:58.437Z,14.08
2023-04-15T18:51:25.897Z,14.10
2023-04-15T18:53:52.845Z,14.10
2023-04-15T18:56:20.544Z,14.10
2023-04-15T18:59:26.933Z,14.06
2023-04-15T19:01:34.494Z,13.98
2023-04-15T19:04:02.435Z,13.96
2023-04-15T19:06:29.476Z,13.91
2023-04-15T19:08:58.526Z,13.91
2023-04-15T19:11:26.749Z,13.84
2023-04-15T19:13:54.440Z,13.81
2023-04-15T19:16:21.331Z,13.73
2023-04-15T19:18:48.507Z,13.63
2023-04-15T19:21:15.911Z,13.48
2023-04-15T19:23:43.254Z,13.35
2023-04-15T19:26:11.682Z,13.18
2023-04-15T19:28:38.583Z,13.02
2023-04-15T19:31:05.857Z,12.89
2023-04-15T19:33:32.956Z,12.76
2023-04-15T19:36:05.925Z,12.63
2023-04-15T19:38:37.839Z,12.50
2023-04-15T19:41:04.667Z,12.34
2023-04-15T19:43:32.852Z,12.22
2023-04-15T19:45:59.922Z,12.12
2023-04-15T19:48:27.073Z,12.01
2023-04-15T19:50:54.045Z,11.89
2023-04-15T19:53:21.005Z,11.79
2023-04-15T19:55:48.495Z,11.71
2023-04-15T19:58:16.277Z,11.61
2023-04-15T20:00:43.220Z,11.53
2023-04-15T20:03:11.041Z,11.45
2023-04-15T20:05:38.088Z,11.44
2023-04-15T20:08:06.365Z,11.44
2023-04-15T20:10:33.293Z,11.43
2023-04-15T20:13:00.314Z,11.36
2023-04-15T20:15:27.358Z,11.26
2023-04-15T20:17:54.567Z,11.14
2023-04-15T20:20:21.797Z,11.07
2023-04-15T20:22:49.015Z,10.97
2023-04-15T20:25:15.863Z,10.90
2023-04-15T20:27:44.684Z,10.84
2023-04-15T20:30:11.764Z,10.85
2023-04-15T20:32:38.989Z,10.82
2023-04-15T20:35:07.016Z,10.77
2023-04-15T20:37:34.261Z,10.69
2023-04-15T20:40:01.674Z,10.59
2023-04-15T20:42:33.570Z,10.50
2023-04-15T20:45:01.262Z,10.41
2023-04-15T20:47:28.458Z,10.33
2023-04-15T20:49:55.576Z,10.28
2023-04-15T20:52:22.470Z,10.24
2023-04-15T20:54:49.983Z,10.29
2023-04-15T20:57:17.022Z,10.24
2023-04-15T20:59:44.078Z,10.16
2023-04-15T21:02:11.202Z,10.09
2023-04-15T21:04:38.933Z,10.01
2023-04-15T21:07:06.016Z,9.93
2023-04-15T21:09:32.996Z,9.84
2023-04-15T21:12:01.915Z,9.79
2023-04-15T21:14:29.749Z,9.70
2023-04-15T21:16:58.319Z,9.64
2023-04-15T21:19:25.299Z,9.53
2023-04-15T21:21:52.570Z,9.41
2023-04-15T21:24:19.553Z,9.33
2023-04-15T21:26:46.428Z,9.21
2023-04-15T21:29:13.720Z,9.11
2023-04-15T21:31:40.876Z,9.05
2023-04-15T21:34:08.048Z,9.03
2023-04-15T21:36:35.427Z,9.01
2023-04-15T21:39:02.468Z,9.06
2023-04-15T21:41:29.596Z,9.07
2023-04-15T21:43:56.983Z,9.02
2023-04-15T21:46:25.354Z,8.98
2023-04-15T21:48:53.620Z,8.91
2023-04-15T21:51:20.606Z,8.85
2023-04-15T21:53:48.045Z,8.81
2023-04-15T21:56:14.901Z,8.80
2023-04-15T21:58:41.822Z,8.74
2023-04-15T22:01:08.725Z,8.71
2023-04-15T22:03:35.813Z,8.64
2023-04-15T22:06:03.990Z,8.64
2023-04-15T22:08:41.292Z,8.63
2023-04-15T22:11:28.819Z,8.62
2023-04-15T22:13:58.606Z,8.62
2023-04-15T22:16:26.459Z,8.56
2023-04-15T22:18:54.072Z,8.53
2023-04-15T22:21:20.986Z,8.53
2023-04-15T22:23:49.337Z,8.59
2023-04-15T22:26:16.301Z,8.59
2023-04-15T22:28:43.358Z,8.59
2023-04-15T22:31:10.516Z,8.55
2023-04-15T22:33:37.544Z,8.53
2023-04-15T22:36:04.479Z,8.46
2023-04-15T22:38:31.541Z,8.41
2023-04-15T22:40:58.596Z,8.32
2023-04-15T22:43:26.140Z,8.23
2023-04-15T22:45:55.122Z,8.18
2023-04-15T22:48:22.921Z,8.08
2023-04-15T22:50:50.172Z,8.01
2023-04-15T22:53:17.838Z,7.93
2023-04-15T22:55:46.561Z,7.90
2023-04-15T22:58:14.171Z,7.84
2023-04-15T23:00:41.103Z,7.81
2023-04-15T23:03:08.345Z,7.81
2023-04-15T23:05:35.398Z,7.79
2023-04-15T23:08:02.578Z,7.77
2023-04-15T23:10:29.670Z,7.77
2023-04-15T23:12:56.644Z,7.74
2023-04-15T23:15:23.672Z,7.72
2023-04-15T23:17:50.795Z,7.70
2023-04-15T23:20:17.832Z,7.69
2023-04-15T23:22:45.820Z,7.68
2023-04-15T23:25:12.636Z,7.62
2023-04-15T23:27:39.556Z,7.55
2023-04-15T23:30:07.270Z,7.48
2023-04-15T23:32:34.242Z,7.46
2023-04-15T23:35:01.140Z,7.42
2023-04-15T23:37:33.925Z,7.40
2023-04-15T23:40:01.051Z,7.35
2023-04-15T23:42:27.904Z,7.32
2023-04-15T23:44:54.856Z,7.27
2023-04-15T23:47:22.171Z,7.27
2023-04-15T23:49:49.145Z,7.27
2023-04-15T23:52:16.057Z,7.25
2023-04-15T23:54:42.974Z,7.24
2023-04-15T23:57:09.872Z,7.22
2023-04-15T23:59:36.734Z,7.24
